• Join FlightAware (Why Join?)
  • Login
  • US Flag 
08:56PM EDT


 

Airport Tracker/Info


-or-


 

Live Flight TrackerFlight Track Log ✈ SKW2636 ✈ 14-Jun-2013 ✈ KSBA - KLAX

Flight Track Log - Related Links

Times and Time Zones

All times are in EDT time to prevent confusion due to time zone crossing. See the SKW2636 flight status page for this flight to view local times or setup timezone preferences in your user account.

Time Position Orientation Groundspeed Altitude Reporting Facility
EDT Latitude Longitude Course Direction KTS MPH feet Rate Location/Type
07:19PM 34.4261 -119.8614 239° Southwest 135 155 700  Level Los Angeles Center
07:20PM 34.3981 -119.9181 239° Southwest 238 274 3,700 2,460 Climbing Los Angeles Center
07:21PM 34.3383 -119.8847 155° Southeast 253 291 6,000 2,340 Climbing Los Angeles Center
07:22PM 34.2686 -119.8422 153° Southeast 271 312 8,600 2,100 Climbing Los Angeles Center
07:23PM 34.2392 -119.7528 112° Southeast 297 342 10,600 1,200 Climbing Los Angeles Center
07:24PM 34.2186 -119.6408 102° East 333 383 11,100 180 Climbing Los Angeles Center
07:25PM 34.1928 -119.4858 101° East 389 448 11,000 -60 Descending Los Angeles Center
07:26PM 34.1714 -119.3539 101° East 405 466 11,000  Level Los Angeles Center
07:27PM 34.1492 -119.2306 102° East 371 427 11,000  Level Los Angeles Center
07:28PM 34.1303 -119.1294 103° East 308 354 11,000  Level Los Angeles Center
07:29PM 34.1117 -119.0303 103° East 303 349 11,000  Level Los Angeles Center
07:30PM 34.0844 -118.9353 109° East 300 345 11,000 -300 Level Los Angeles Center
07:31PM 34.0536 -118.8189 108° East 302 348 10,400 -480 Descending Los Angeles Center
07:32PM 34.0356 -118.7247 103° East 299 344 10,100 -240 Descending Los Angeles Center
07:33PM 34.0253 -118.6158 96° East 300 345 9,900 -480 Descending Los Angeles Center
07:34PM 34.0167 -118.5233 96° East 275 316 9,200 -840 Descending Los Angeles Center
07:35PM 34.0156 -118.4531 91° East 220 253 8,200 -1,020 Descending Los Angeles Center
07:36PM 34.0242 -118.3981 79° East 207 238 7,200 -900 Descending Los Angeles Center
07:37PM 34.0367 -118.3164 80° East 207 238 6,400 -660 Descending Los Angeles Center
07:38PM 34.0461 -118.2350 82° East 204 235 5,900 -1,380 Descending Los Angeles Center
07:39PM 34.0006 -118.2397 185° South 206 237 3,600 -1,920 Descending Los Angeles Center
07:40PM 33.9772 -118.2989 245° Southwest 203 234 2,000 -1,200 Descending Los Angeles Center
07:42PM 33.9575 -118.3417 241° Southwest 171 197 1,200 -780 Descending Los Angeles Center
07:43PM 33.9550 -118.3856 266° West 146 168 500 -540 Descending Los Angeles Center
07:44PM 33.9500 -118.4367 263° West 141 162 200 -300 Descending Los Angeles Center